sensor_id;sensor_type;location;lat;lon;timestamp;temperature;humidity
31131;DHT22;20292;50.944;4.034;2022-10-22T00:00:00;17.00;99.90
31131;DHT22;20292;50.944;4.034;2022-10-22T00:02:26;17.00;99.90
31131;DHT22;20292;50.944;4.034;2022-10-22T00:04:52;16.90;99.90
31131;DHT22;20292;50.944;4.034;2022-10-22T00:07:19;16.90;99.90
31131;DHT22;20292;50.944;4.034;2022-10-22T00:09:45;16.90;99.90
31131;DHT22;20292;50.944;4.034;2022-10-22T00:12:11;16.90;99.90
31131;DHT22;20292;50.944;4.034;2022-10-22T00:14:37;16.90;99.90
31131;DHT22;20292;50.944;4.034;2022-10-22T00:17:03;16.90;99.90
31131;DHT22;20292;50.944;4.034;2022-10-22T00:19:28;16.80;99.90
31131;DHT22;20292;50.944;4.034;2022-10-22T00:21:54;16.80;99.90
31131;DHT22;20292;50.944;4.034;2022-10-22T00:24:19;16.90;99.90
31131;DHT22;20292;50.944;4.034;2022-10-22T00:26:45;16.90;99.90
31131;DHT22;20292;50.944;4.034;2022-10-22T00:29:11;16.90;99.90
31131;DHT22;20292;50.944;4.034;2022-10-22T00:31:36;17.00;99.90
31131;DHT22;20292;50.944;4.034;2022-10-22T00:34:02;16.90;99.90
31131;DHT22;20292;50.944;4.034;2022-10-22T00:36:28;16.90;99.90
31131;DHT22;20292;50.944;4.034;2022-10-22T00:38:53;16.90;99.90
31131;DHT22;20292;50.944;4.034;2022-10-22T00:41:19;16.90;99.90
31131;DHT22;20292;50.944;4.034;2022-10-22T00:43:56;16.80;99.90
31131;DHT22;20292;50.944;4.034;2022-10-22T00:46:22;16.80;99.90
31131;DHT22;20292;50.944;4.034;2022-10-22T00:48:48;16.80;99.90
31131;DHT22;20292;50.944;4.034;2022-10-22T00:51:14;16.90;99.90
31131;DHT22;20292;50.944;4.034;2022-10-22T00:53:44;16.80;99.90
31131;DHT22;20292;50.944;4.034;2022-10-22T00:56:11;16.80;99.90
31131;DHT22;20292;50.944;4.034;2022-10-22T00:58:44;16.80;99.90
31131;DHT22;20292;50.944;4.034;2022-10-22T01:01:16;16.80;99.90
31131;DHT22;20292;50.944;4.034;2022-10-22T01:03:42;16.90;99.90
31131;DHT22;20292;50.944;4.034;2022-10-22T01:06:11;16.90;99.90
31131;DHT22;20292;50.944;4.034;2022-10-22T01:12:02;16.90;99.90
31131;DHT22;20292;50.944;4.034;2022-10-22T01:14:46;16.90;99.90
31131;DHT22;20292;50.944;4.034;2022-10-22T01:17:29;16.90;99.90
31131;DHT22;20292;50.944;4.034;2022-10-22T01:20:16;16.80;99.90
31131;DHT22;20292;50.944;4.034;2022-10-22T01:22:44;16.70;99.90
31131;DHT22;20292;50.944;4.034;2022-10-22T01:25:35;16.70;99.90
31131;DHT22;20292;50.944;4.034;2022-10-22T01:30:43;16.70;99.90
31131;DHT22;20292;50.944;4.034;2022-10-22T01:33:13;16.60;99.90
31131;DHT22;20292;50.944;4.034;2022-10-22T01:35:42;16.60;99.90
31131;DHT22;20292;50.944;4.034;2022-10-22T01:38:16;16.60;99.90
31131;DHT22;20292;50.944;4.034;2022-10-22T01:40:43;16.60;99.90
31131;DHT22;20292;50.944;4.034;2022-10-22T01:43:10;16.60;99.90
31131;DHT22;20292;50.944;4.034;2022-10-22T01:45:41;16.60;99.90
31131;DHT22;20292;50.944;4.034;2022-10-22T01:48:21;16.50;99.90
31131;DHT22;20292;50.944;4.034;2022-10-22T01:51:14;16.50;99.90
31131;DHT22;20292;50.944;4.034;2022-10-22T01:53:52;16.50;99.90
31131;DHT22;20292;50.944;4.034;2022-10-22T01:59:42;16.50;99.90
31131;DHT22;20292;50.944;4.034;2022-10-22T02:05:02;16.50;99.90
31131;DHT22;20292;50.944;4.034;2022-10-22T02:07:34;16.50;99.90
31131;DHT22;20292;50.944;4.034;2022-10-22T02:10:03;16.40;99.90
31131;DHT22;20292;50.944;4.034;2022-10-22T02:12:30;16.40;99.90
31131;DHT22;20292;50.944;4.034;2022-10-22T02:14:57;16.40;99.90
31131;DHT22;20292;50.944;4.034;2022-10-22T02:17:24;16.40;99.90
31131;DHT22;20292;50.944;4.034;2022-10-22T02:19:56;16.50;99.90
31131;DHT22;20292;50.944;4.034;2022-10-22T02:22:23;16.40;99.90
31131;DHT22;20292;50.944;4.034;2022-10-22T02:24:49;16.40;99.90
31131;DHT22;20292;50.944;4.034;2022-10-22T02:27:26;16.40;99.90
31131;DHT22;20292;50.944;4.034;2022-10-22T02:30:16;16.40;99.90
31131;DHT22;20292;50.944;4.034;2022-10-22T02:35:17;16.30;99.90
31131;DHT22;20292;50.944;4.034;2022-10-22T02:37:44;16.40;99.90
31131;DHT22;20292;50.944;4.034;2022-10-22T02:40:10;16.30;99.90
31131;DHT22;20292;50.944;4.034;2022-10-22T02:42:37;16.30;99.90
31131;DHT22;20292;50.944;4.034;2022-10-22T02:45:03;16.30;99.90
31131;DHT22;20292;50.944;4.034;2022-10-22T02:47:29;16.30;99.90
31131;DHT22;20292;50.944;4.034;2022-10-22T02:49:54;16.30;99.90
31131;DHT22;20292;50.944;4.034;2022-10-22T02:52:20;16.20;99.90
31131;DHT22;20292;50.944;4.034;2022-10-22T02:54:45;16.20;99.90
31131;DHT22;20292;50.944;4.034;2022-10-22T02:57:11;16.20;99.90
31131;DHT22;20292;50.944;4.034;2022-10-22T02:59:37;16.20;99.90
31131;DHT22;20292;50.944;4.034;2022-10-22T03:02:02;16.20;99.90
31131;DHT22;20292;50.944;4.034;2022-10-22T03:04:28;16.20;99.90
31131;DHT22;20292;50.944;4.034;2022-10-22T03:06:54;16.20;99.90
31131;DHT22;20292;50.944;4.034;2022-10-22T03:09:19;16.20;99.90
31131;DHT22;20292;50.944;4.034;2022-10-22T03:11:45;16.20;99.90
31131;DHT22;20292;50.944;4.034;2022-10-22T03:14:11;16.20;99.90
31131;DHT22;20292;50.944;4.034;2022-10-22T03:16:37;16.20;99.90
31131;DHT22;20292;50.944;4.034;2022-10-22T03:19:02;16.30;99.90
31131;DHT22;20292;50.944;4.034;2022-10-22T03:21:33;16.30;99.90
31131;DHT22;20292;50.944;4.034;2022-10-22T03:24:02;16.40;99.90
31131;DHT22;20292;50.944;4.034;2022-10-22T03:26:29;16.40;99.90
31131;DHT22;20292;50.944;4.034;2022-10-22T03:28:54;16.40;99.90
31131;DHT22;20292;50.944;4.034;2022-10-22T03:31:20;16.40;99.90
31131;DHT22;20292;50.944;4.034;2022-10-22T03:33:46;16.40;99.90
31131;DHT22;20292;50.944;4.034;2022-10-22T03:36:12;16.40;99.90
31131;DHT22;20292;50.944;4.034;2022-10-22T03:38:37;16.40;99.90
31131;DHT22;20292;50.944;4.034;2022-10-22T03:41:04;16.40;99.90
31131;DHT22;20292;50.944;4.034;2022-10-22T03:43:30;16.40;99.90
31131;DHT22;20292;50.944;4.034;2022-10-22T03:45:56;16.30;99.90
31131;DHT22;20292;50.944;4.034;2022-10-22T03:48:21;16.30;99.90
31131;DHT22;20292;50.944;4.034;2022-10-22T03:50:48;16.30;99.90
31131;DHT22;20292;50.944;4.034;2022-10-22T03:53:13;16.30;99.90
31131;DHT22;20292;50.944;4.034;2022-10-22T03:55:40;16.30;99.90
31131;DHT22;20292;50.944;4.034;2022-10-22T03:58:06;16.30;99.90
31131;DHT22;20292;50.944;4.034;2022-10-22T04:00:33;16.50;99.90
31131;DHT22;20292;50.944;4.034;2022-10-22T04:02:59;16.40;99.90
31131;DHT22;20292;50.944;4.034;2022-10-22T04:05:24;16.40;99.90
31131;DHT22;20292;50.944;4.034;2022-10-22T04:07:50;16.40;99.90
31131;DHT22;20292;50.944;4.034;2022-10-22T04:10:16;16.40;99.90
31131;DHT22;20292;50.944;4.034;2022-10-22T04:12:41;16.40;99.90
31131;DHT22;20292;50.944;4.034;2022-10-22T04:15:08;16.40;99.90
31131;DHT22;20292;50.944;4.034;2022-10-22T04:17:35;16.40;99.90
31131;DHT22;20292;50.944;4.034;2022-10-22T04:20:01;16.40;99.90
31131;DHT22;20292;50.944;4.034;2022-10-22T04:22:27;16.40;99.90
31131;DHT22;20292;50.944;4.034;2022-10-22T04:24:53;16.30;99.90
31131;DHT22;20292;50.944;4.034;2022-10-22T04:27:19;16.30;99.90
31131;DHT22;20292;50.944;4.034;2022-10-22T04:29:44;16.30;99.90
31131;DHT22;20292;50.944;4.034;2022-10-22T04:32:10;16.30;99.90
31131;DHT22;20292;50.944;4.034;2022-10-22T04:34:36;16.20;99.90
31131;DHT22;20292;50.944;4.034;2022-10-22T04:37:01;16.20;99.90
31131;DHT22;20292;50.944;4.034;2022-10-22T04:39:27;16.10;99.90
31131;DHT22;20292;50.944;4.034;2022-10-22T04:41:53;16.10;99.90
31131;DHT22;20292;50.944;4.034;2022-10-22T04:44:18;16.20;99.90
31131;DHT22;20292;50.944;4.034;2022-10-22T04:46:44;16.20;99.90
31131;DHT22;20292;50.944;4.034;2022-10-22T04:49:10;16.20;99.90
31131;DHT22;20292;50.944;4.034;2022-10-22T04:51:35;16.10;99.90
31131;DHT22;20292;50.944;4.034;2022-10-22T04:54:01;16.00;99.90
31131;DHT22;20292;50.944;4.034;2022-10-22T04:56:28;15.90;99.90
31131;DHT22;20292;50.944;4.034;2022-10-22T04:59:00;15.90;99.90
31131;DHT22;20292;50.944;4.034;2022-10-22T05:01:28;15.90;99.90
31131;DHT22;20292;50.944;4.034;2022-10-22T05:03:56;15.90;99.90
31131;DHT22;20292;50.944;4.034;2022-10-22T05:06:22;15.90;99.90
31131;DHT22;20292;50.944;4.034;2022-10-22T05:08:53;15.90;99.90
31131;DHT22;20292;50.944;4.034;2022-10-22T05:11:21;15.90;99.90
31131;DHT22;20292;50.944;4.034;2022-10-22T05:13:50;15.90;99.90
31131;DHT22;20292;50.944;4.034;2022-10-22T05:16:15;15.90;99.90
31131;DHT22;20292;50.944;4.034;2022-10-22T05:18:43;15.90;99.90
31131;DHT22;20292;50.944;4.034;2022-10-22T05:21:10;15.90;99.90
31131;DHT22;20292;50.944;4.034;2022-10-22T05:23:37;15.90;99.90
31131;DHT22;20292;50.944;4.034;2022-10-22T05:26:04;15.80;99.90
31131;DHT22;20292;50.944;4.034;2022-10-22T05:28:30;15.80;99.90
31131;DHT22;20292;50.944;4.034;2022-10-22T05:30:58;15.80;99.90
31131;DHT22;20292;50.944;4.034;2022-10-22T05:33:24;15.80;99.90
31131;DHT22;20292;50.944;4.034;2022-10-22T05:35:50;15.80;99.90
31131;DHT22;20292;50.944;4.034;2022-10-22T05:38:17;15.90;99.90
31131;DHT22;20292;50.944;4.034;2022-10-22T05:40:43;15.90;99.90
31131;DHT22;20292;50.944;4.034;2022-10-22T05:43:09;15.90;99.90
31131;DHT22;20292;50.944;4.034;2022-10-22T05:45:41;15.90;99.90
31131;DHT22;20292;50.944;4.034;2022-10-22T05:48:08;15.80;99.90
31131;DHT22;20292;50.944;4.034;2022-10-22T05:50:37;15.80;99.90
31131;DHT22;20292;50.944;4.034;2022-10-22T05:53:04;15.90;99.90
31131;DHT22;20292;50.944;4.034;2022-10-22T05:55:34;15.80;99.90
31131;DHT22;20292;50.944;4.034;2022-10-22T05:58:02;16.00;99.90
31131;DHT22;20292;50.944;4.034;2022-10-22T06:00:27;16.10;99.90
31131;DHT22;20292;50.944;4.034;2022-10-22T06:02:53;16.20;99.90
31131;DHT22;20292;50.944;4.034;2022-10-22T06:05:18;16.20;99.90
31131;DHT22;20292;50.944;4.034;2022-10-22T06:07:44;16.30;99.90
31131;DHT22;20292;50.944;4.034;2022-10-22T06:10:13;16.30;99.90
31131;DHT22;20292;50.944;4.034;2022-10-22T06:12:40;16.30;99.90
31131;DHT22;20292;50.944;4.034;2022-10-22T06:15:06;16.40;99.90
31131;DHT22;20292;50.944;4.034;2022-10-22T06:17:31;16.50;99.90
31131;DHT22;20292;50.944;4.034;2022-10-22T06:19:57;16.50;99.90
31131;DHT22;20292;50.944;4.034;2022-10-22T06:22:23;16.50;99.90
31131;DHT22;20292;50.944;4.034;2022-10-22T06:24:48;16.50;99.90
31131;DHT22;20292;50.944;4.034;2022-10-22T06:27:14;16.50;99.90
31131;DHT22;20292;50.944;4.034;2022-10-22T06:29:39;16.60;99.90
31131;DHT22;20292;50.944;4.034;2022-10-22T06:32:05;16.60;99.90
31131;DHT22;20292;50.944;4.034;2022-10-22T06:34:30;16.60;99.90
31131;DHT22;20292;50.944;4.034;2022-10-22T06:36:56;16.70;99.90
31131;DHT22;20292;50.944;4.034;2022-10-22T06:39:22;16.80;99.90
31131;DHT22;20292;50.944;4.034;2022-10-22T06:41:47;16.80;99.90
31131;DHT22;20292;50.944;4.034;2022-10-22T06:44:16;16.80;99.90
31131;DHT22;20292;50.944;4.034;2022-10-22T06:46:42;16.90;99.90
31131;DHT22;20292;50.944;4.034;2022-10-22T06:49:11;16.90;99.90
31131;DHT22;20292;50.944;4.034;2022-10-22T06:51:38;16.90;99.90
31131;DHT22;20292;50.944;4.034;2022-10-22T06:54:03;17.00;99.90
31131;DHT22;20292;50.944;4.034;2022-10-22T06:56:29;17.10;99.90
31131;DHT22;20292;50.944;4.034;2022-10-22T06:58:56;17.10;99.90
31131;DHT22;20292;50.944;4.034;2022-10-22T07:01:25;17.30;99.90
31131;DHT22;20292;50.944;4.034;2022-10-22T07:03:51;17.30;99.90
31131;DHT22;20292;50.944;4.034;2022-10-22T07:06:18;17.40;99.90
31131;DHT22;20292;50.944;4.034;2022-10-22T07:08:44;17.40;99.90
31131;DHT22;20292;50.944;4.034;2022-10-22T07:11:24;17.50;99.90
31131;DHT22;20292;50.944;4.034;2022-10-22T07:13:50;17.30;99.90
31131;DHT22;20292;50.944;4.034;2022-10-22T07:16:18;17.30;99.90
31131;DHT22;20292;50.944;4.034;2022-10-22T07:18:44;17.20;99.90
31131;DHT22;20292;50.944;4.034;2022-10-22T07:21:11;17.20;99.90
31131;DHT22;20292;50.944;4.034;2022-10-22T07:23:37;17.20;99.90
31131;DHT22;20292;50.944;4.034;2022-10-22T07:26:04;17.20;99.90
31131;DHT22;20292;50.944;4.034;2022-10-22T07:28:32;17.20;99.90
31131;DHT22;20292;50.944;4.034;2022-10-22T07:30:58;17.20;99.90
31131;DHT22;20292;50.944;4.034;2022-10-22T07:33:24;17.30;99.90
31131;DHT22;20292;50.944;4.034;2022-10-22T07:35:50;17.30;99.90
31131;DHT22;20292;50.944;4.034;2022-10-22T07:38:15;17.30;99.90
31131;DHT22;20292;50.944;4.034;2022-10-22T07:40:41;17.30;99.90
31131;DHT22;20292;50.944;4.034;2022-10-22T07:43:06;17.30;99.90
31131;DHT22;20292;50.944;4.034;2022-10-22T07:45:32;17.40;99.90
31131;DHT22;20292;50.944;4.034;2022-10-22T07:47:58;17.50;99.90
31131;DHT22;20292;50.944;4.034;2022-10-22T07:50:25;17.60;99.90
31131;DHT22;20292;50.944;4.034;2022-10-22T07:52:51;17.70;99.90
31131;DHT22;20292;50.944;4.034;2022-10-22T07:55:16;17.80;99.90
31131;DHT22;20292;50.944;4.034;2022-10-22T07:57:42;17.80;99.90
31131;DHT22;20292;50.944;4.034;2022-10-22T08:00:08;17.80;99.90
31131;DHT22;20292;50.944;4.034;2022-10-22T08:02:34;17.80;99.90
31131;DHT22;20292;50.944;4.034;2022-10-22T08:05:00;18.00;99.90
31131;DHT22;20292;50.944;4.034;2022-10-22T08:07:25;18.00;99.90
31131;DHT22;20292;50.944;4.034;2022-10-22T08:09:51;18.20;99.90
31131;DHT22;20292;50.944;4.034;2022-10-22T08:12:17;18.50;99.90
31131;DHT22;20292;50.944;4.034;2022-10-22T08:14:43;18.60;99.90
31131;DHT22;20292;50.944;4.034;2022-10-22T08:17:08;18.60;99.90
31131;DHT22;20292;50.944;4.034;2022-10-22T08:19:34;18.50;99.90
31131;DHT22;20292;50.944;4.034;2022-10-22T08:22:00;18.50;99.90
31131;DHT22;20292;50.944;4.034;2022-10-22T08:24:26;18.60;99.90
31131;DHT22;20292;50.944;4.034;2022-10-22T08:26:52;18.40;99.90
31131;DHT22;20292;50.944;4.034;2022-10-22T08:29:23;18.40;99.90
31131;DHT22;20292;50.944;4.034;2022-10-22T08:31:49;18.30;99.90
31131;DHT22;20292;50.944;4.034;2022-10-22T08:34:15;18.30;99.90
31131;DHT22;20292;50.944;4.034;2022-10-22T08:36:41;18.20;99.90
31131;DHT22;20292;50.944;4.034;2022-10-22T08:39:07;18.20;99.90
31131;DHT22;20292;50.944;4.034;2022-10-22T08:41:38;18.10;99.90
31131;DHT22;20292;50.944;4.034;2022-10-22T08:49:36;17.90;99.90
31131;DHT22;20292;50.944;4.034;2022-10-22T08:52:03;18.10;99.90
31131;DHT22;20292;50.944;4.034;2022-10-22T08:54:52;18.30;99.90
31131;DHT22;20292;50.944;4.034;2022-10-22T08:57:48;18.30;99.90
31131;DHT22;20292;50.944;4.034;2022-10-22T09:05:45;18.80;99.90
31131;DHT22;20292;50.944;4.034;2022-10-22T09:08:15;19.10;99.90
31131;DHT22;20292;50.944;4.034;2022-10-22T09:10:53;19.40;99.90
31131;DHT22;20292;50.944;4.034;2022-10-22T09:13:22;19.70;99.90
31131;DHT22;20292;50.944;4.034;2022-10-22T09:15:55;20.00;99.90
31131;DHT22;20292;50.944;4.034;2022-10-22T09:18:35;20.20;99.90
31131;DHT22;20292;50.944;4.034;2022-10-22T09:24:04;20.00;99.90
31131;DHT22;20292;50.944;4.034;2022-10-22T09:26:33;19.90;99.90
31131;DHT22;20292;50.944;4.034;2022-10-22T09:29:00;19.90;99.90
31131;DHT22;20292;50.944;4.034;2022-10-22T09:31:27;20.00;99.90
31131;DHT22;20292;50.944;4.034;2022-10-22T09:33:54;19.90;99.90
31131;DHT22;20292;50.944;4.034;2022-10-22T09:36:22;19.90;99.90
31131;DHT22;20292;50.944;4.034;2022-10-22T09:38:51;19.90;99.90
31131;DHT22;20292;50.944;4.034;2022-10-22T09:41:19;19.80;99.90
31131;DHT22;20292;50.944;4.034;2022-10-22T09:43:48;19.80;99.90
31131;DHT22;20292;50.944;4.034;2022-10-22T09:46:23;19.70;99.90
31131;DHT22;20292;50.944;4.034;2022-10-22T09:49:05;19.70;99.90
31131;DHT22;20292;50.944;4.034;2022-10-22T09:51:59;19.70;99.90
31131;DHT22;20292;50.944;4.034;2022-10-22T09:57:02;19.70;99.90
31131;DHT22;20292;50.944;4.034;2022-10-22T09:59:37;19.70;99.90
31131;DHT22;20292;50.944;4.034;2022-10-22T10:02:12;19.90;99.90
31131;DHT22;20292;50.944;4.034;2022-10-22T10:04:46;20.00;99.90
31131;DHT22;20292;50.944;4.034;2022-10-22T10:07:18;19.90;99.90
31131;DHT22;20292;50.944;4.034;2022-10-22T10:09:44;19.80;99.90
31131;DHT22;20292;50.944;4.034;2022-10-22T10:12:48;19.80;99.90
31131;DHT22;20292;50.944;4.034;2022-10-22T10:18:11;19.80;99.90
31131;DHT22;20292;50.944;4.034;2022-10-22T10:23:33;20.20;99.90
31131;DHT22;20292;50.944;4.034;2022-10-22T10:26:10;20.20;99.90
31131;DHT22;20292;50.944;4.034;2022-10-22T10:31:51;20.50;99.90
31131;DHT22;20292;50.944;4.034;2022-10-22T10:37:26;20.70;99.90
31131;DHT22;20292;50.944;4.034;2022-10-22T10:45:28;20.90;99.90
31131;DHT22;20292;50.944;4.034;2022-10-22T10:50:29;20.90;99.90
31131;DHT22;20292;50.944;4.034;2022-10-22T10:56:06;21.10;99.90
31131;DHT22;20292;50.944;4.034;2022-10-22T10:58:44;21.00;99.90
31131;DHT22;20292;50.944;4.034;2022-10-22T11:01:36;21.00;99.90
31131;DHT22;20292;50.944;4.034;2022-10-22T11:06:39;21.10;99.90
31131;DHT22;20292;50.944;4.034;2022-10-22T11:09:33;21.00;99.90
31131;DHT22;20292;50.944;4.034;2022-10-22T11:12:03;21.00;99.90
31131;DHT22;20292;50.944;4.034;2022-10-22T11:14:51;21.00;99.90
31131;DHT22;20292;50.944;4.034;2022-10-22T11:17:22;21.10;99.90
31131;DHT22;20292;50.944;4.034;2022-10-22T11:19:58;21.30;99.90
31131;DHT22;20292;50.944;4.034;2022-10-22T11:22:31;21.40;99.90
31131;DHT22;20292;50.944;4.034;2022-10-22T11:25:13;21.40;99.90
31131;DHT22;20292;50.944;4.034;2022-10-22T11:27:52;21.60;99.90
31131;DHT22;20292;50.944;4.034;2022-10-22T11:30:23;21.70;99.90
31131;DHT22;20292;50.944;4.034;2022-10-22T11:32:55;21.70;99.90
31131;DHT22;20292;50.944;4.034;2022-10-22T11:35:33;21.80;99.90
31131;DHT22;20292;50.944;4.034;2022-10-22T11:38:00;21.70;99.90
31131;DHT22;20292;50.944;4.034;2022-10-22T11:40:56;21.70;99.90
31131;DHT22;20292;50.944;4.034;2022-10-22T11:43:27;21.60;99.90
31131;DHT22;20292;50.944;4.034;2022-10-22T11:46:24;21.60;99.90
31131;DHT22;20292;50.944;4.034;2022-10-22T11:51:40;21.60;99.90
31131;DHT22;20292;50.944;4.034;2022-10-22T11:54:29;21.60;99.90
31131;DHT22;20292;50.944;4.034;2022-10-22T12:02:39;21.60;99.90
31131;DHT22;20292;50.944;4.034;2022-10-22T12:10:34;21.70;99.90
31131;DHT22;20292;50.944;4.034;2022-10-22T12:13:23;21.70;99.90
31131;DHT22;20292;50.944;4.034;2022-10-22T12:15:53;21.70;99.90
31131;DHT22;20292;50.944;4.034;2022-10-22T12:18:23;21.70;99.90
31131;DHT22;20292;50.944;4.034;2022-10-22T12:20:51;21.80;99.90
31131;DHT22;20292;50.944;4.034;2022-10-22T12:23:17;21.70;99.90
31131;DHT22;20292;50.944;4.034;2022-10-22T12:25:43;21.60;99.90
31131;DHT22;20292;50.944;4.034;2022-10-22T12:28:11;21.60;99.90
31131;DHT22;20292;50.944;4.034;2022-10-22T12:30:37;21.50;99.90
31131;DHT22;20292;50.944;4.034;2022-10-22T12:33:05;21.50;99.90
31131;DHT22;20292;50.944;4.034;2022-10-22T12:35:33;21.50;99.90
31131;DHT22;20292;50.944;4.034;2022-10-22T12:38:02;21.40;99.90
31131;DHT22;20292;50.944;4.034;2022-10-22T12:40:31;21.40;99.90
31131;DHT22;20292;50.944;4.034;2022-10-22T12:43:06;21.30;99.90
31131;DHT22;20292;50.944;4.034;2022-10-22T12:45:34;21.40;99.90
31131;DHT22;20292;50.944;4.034;2022-10-22T12:48:07;21.40;99.90
31131;DHT22;20292;50.944;4.034;2022-10-22T12:50:41;21.50;99.90
31131;DHT22;20292;50.944;4.034;2022-10-22T12:53:17;21.50;99.90
31131;DHT22;20292;50.944;4.034;2022-10-22T12:55:50;21.40;99.90
31131;DHT22;20292;50.944;4.034;2022-10-22T12:58:21;21.30;99.90
31131;DHT22;20292;50.944;4.034;2022-10-22T13:00:54;21.20;99.90
31131;DHT22;20292;50.944;4.034;2022-10-22T13:03:50;21.00;99.90
31131;DHT22;20292;50.944;4.034;2022-10-22T13:06:27;21.00;99.90
31131;DHT22;20292;50.944;4.034;2022-10-22T13:11:21;21.20;99.90
31131;DHT22;20292;50.944;4.034;2022-10-22T13:13:47;21.30;99.90
31131;DHT22;20292;50.944;4.034;2022-10-22T13:16:21;21.20;99.90
31131;DHT22;20292;50.944;4.034;2022-10-22T13:18:52;21.40;99.90
31131;DHT22;20292;50.944;4.034;2022-10-22T13:23:52;21.70;99.90
31131;DHT22;20292;50.944;4.034;2022-10-22T13:26:18;21.80;99.90
31131;DHT22;20292;50.944;4.034;2022-10-22T13:28:54;21.80;99.90
31131;DHT22;20292;50.944;4.034;2022-10-22T13:31:34;21.80;99.90
31131;DHT22;20292;50.944;4.034;2022-10-22T13:34:04;21.90;99.90
31131;DHT22;20292;50.944;4.034;2022-10-22T13:36:31;22.00;99.90
31131;DHT22;20292;50.944;4.034;2022-10-22T13:38:57;22.10;99.90
31131;DHT22;20292;50.944;4.034;2022-10-22T13:41:28;22.10;99.90
31131;DHT22;20292;50.944;4.034;2022-10-22T13:43:55;22.00;99.90
31131;DHT22;20292;50.944;4.034;2022-10-22T13:46:22;22.10;99.90
31131;DHT22;20292;50.944;4.034;2022-10-22T13:48:49;22.00;99.90
31131;DHT22;20292;50.944;4.034;2022-10-22T13:51:19;22.10;99.90
31131;DHT22;20292;50.944;4.034;2022-10-22T13:53:46;22.00;99.90
31131;DHT22;20292;50.944;4.034;2022-10-22T13:56:18;22.20;99.90
31131;DHT22;20292;50.944;4.034;2022-10-22T13:58:46;22.20;99.90
31131;DHT22;20292;50.944;4.034;2022-10-22T14:01:23;22.00;99.90
31131;DHT22;20292;50.944;4.034;2022-10-22T14:03:52;21.90;99.90
31131;DHT22;20292;50.944;4.034;2022-10-22T14:06:19;21.90;99.90
31131;DHT22;20292;50.944;4.034;2022-10-22T14:08:47;21.90;99.90
31131;DHT22;20292;50.944;4.034;2022-10-22T14:11:15;21.90;99.90
31131;DHT22;20292;50.944;4.034;2022-10-22T14:13:41;21.90;99.90
31131;DHT22;20292;50.944;4.034;2022-10-22T14:16:20;22.00;99.90
31131;DHT22;20292;50.944;4.034;2022-10-22T14:18:47;22.00;99.90
31131;DHT22;20292;50.944;4.034;2022-10-22T14:21:14;22.00;99.90
31131;DHT22;20292;50.944;4.034;2022-10-22T14:23:42;21.90;99.90
31131;DHT22;20292;50.944;4.034;2022-10-22T14:26:19;21.80;99.90
31131;DHT22;20292;50.944;4.034;2022-10-22T14:28:46;21.60;99.90
31131;DHT22;20292;50.944;4.034;2022-10-22T14:31:11;21.60;99.90
31131;DHT22;20292;50.944;4.034;2022-10-22T14:33:38;21.40;99.90
31131;DHT22;20292;50.944;4.034;2022-10-22T14:36:03;21.40;99.90
31131;DHT22;20292;50.944;4.034;2022-10-22T14:38:29;21.40;99.90
31131;DHT22;20292;50.944;4.034;2022-10-22T14:40:55;21.50;99.90
31131;DHT22;20292;50.944;4.034;2022-10-22T14:43:25;21.40;99.90
31131;DHT22;20292;50.944;4.034;2022-10-22T14:45:51;21.40;99.90
31131;DHT22;20292;50.944;4.034;2022-10-22T14:48:17;21.30;99.90
31131;DHT22;20292;50.944;4.034;2022-10-22T14:50:46;21.30;99.90
31131;DHT22;20292;50.944;4.034;2022-10-22T14:53:13;21.30;99.90
31131;DHT22;20292;50.944;4.034;2022-10-22T14:55:39;21.30;99.90
31131;DHT22;20292;50.944;4.034;2022-10-22T14:58:06;21.30;99.90
31131;DHT22;20292;50.944;4.034;2022-10-22T15:00:31;21.30;99.90
31131;DHT22;20292;50.944;4.034;2022-10-22T15:02:58;21.20;99.90
31131;DHT22;20292;50.944;4.034;2022-10-22T15:05:25;21.20;99.90
31131;DHT22;20292;50.944;4.034;2022-10-22T15:07:50;21.10;99.90
31131;DHT22;20292;50.944;4.034;2022-10-22T15:10:16;21.00;99.90
31131;DHT22;20292;50.944;4.034;2022-10-22T15:12:43;21.10;99.90
31131;DHT22;20292;50.944;4.034;2022-10-22T15:15:09;21.00;99.90
31131;DHT22;20292;50.944;4.034;2022-10-22T15:17:34;20.90;99.90
31131;DHT22;20292;50.944;4.034;2022-10-22T15:20:00;21.00;99.90
31131;DHT22;20292;50.944;4.034;2022-10-22T15:22:29;20.90;99.90
31131;DHT22;20292;50.944;4.034;2022-10-22T15:24:56;20.90;99.90
31131;DHT22;20292;50.944;4.034;2022-10-22T15:27:22;20.90;99.90
31131;DHT22;20292;50.944;4.034;2022-10-22T15:29:48;20.90;99.90
31131;DHT22;20292;50.944;4.034;2022-10-22T15:32:13;21.00;99.90
31131;DHT22;20292;50.944;4.034;2022-10-22T15:34:39;21.00;99.90
31131;DHT22;20292;50.944;4.034;2022-10-22T15:37:09;21.00;99.90
31131;DHT22;20292;50.944;4.034;2022-10-22T15:39:39;21.00;99.90
31131;DHT22;20292;50.944;4.034;2022-10-22T15:42:05;21.00;99.90
31131;DHT22;20292;50.944;4.034;2022-10-22T15:44:31;21.00;99.90
31131;DHT22;20292;50.944;4.034;2022-10-22T15:46:57;21.00;99.90
31131;DHT22;20292;50.944;4.034;2022-10-22T15:49:25;21.00;99.90
31131;DHT22;20292;50.944;4.034;2022-10-22T15:51:52;21.00;99.90
31131;DHT22;20292;50.944;4.034;2022-10-22T15:54:20;21.00;99.90
31131;DHT22;20292;50.944;4.034;2022-10-22T15:56:46;20.90;99.90
31131;DHT22;20292;50.944;4.034;2022-10-22T15:59:13;20.90;99.90
31131;DHT22;20292;50.944;4.034;2022-10-22T16:01:40;20.80;99.90
31131;DHT22;20292;50.944;4.034;2022-10-22T16:04:06;20.70;99.90
31131;DHT22;20292;50.944;4.034;2022-10-22T16:06:37;20.60;99.90
31131;DHT22;20292;50.944;4.034;2022-10-22T16:09:09;20.50;99.90
31131;DHT22;20292;50.944;4.034;2022-10-22T16:11:35;20.50;99.90
31131;DHT22;20292;50.944;4.034;2022-10-22T16:14:01;20.50;99.90
31131;DHT22;20292;50.944;4.034;2022-10-22T16:16:30;20.50;99.90
31131;DHT22;20292;50.944;4.034;2022-10-22T16:18:56;20.40;99.90
31131;DHT22;20292;50.944;4.034;2022-10-22T16:21:22;20.40;99.90
31131;DHT22;20292;50.944;4.034;2022-10-22T16:23:48;20.30;99.90
31131;DHT22;20292;50.944;4.034;2022-10-22T16:26:15;20.30;99.90
31131;DHT22;20292;50.944;4.034;2022-10-22T16:28:41;20.20;99.90
31131;DHT22;20292;50.944;4.034;2022-10-22T16:31:09;20.20;99.90
31131;DHT22;20292;50.944;4.034;2022-10-22T16:33:36;20.20;99.90
31131;DHT22;20292;50.944;4.034;2022-10-22T16:36:04;20.10;99.90
31131;DHT22;20292;50.944;4.034;2022-10-22T16:38:30;20.10;99.90
31131;DHT22;20292;50.944;4.034;2022-10-22T16:41:09;20.00;99.90
31131;DHT22;20292;50.944;4.034;2022-10-22T16:43:36;19.90;99.90
31131;DHT22;20292;50.944;4.034;2022-10-22T16:46:02;19.90;99.90
31131;DHT22;20292;50.944;4.034;2022-10-22T16:48:28;19.90;99.90
31131;DHT22;20292;50.944;4.034;2022-10-22T16:50:53;19.80;99.90
31131;DHT22;20292;50.944;4.034;2022-10-22T16:53:19;19.90;99.90
31131;DHT22;20292;50.944;4.034;2022-10-22T16:55:44;19.70;99.90